Time;durP1;ratioP1;P1;durP2;ratioP2;P2;SDS_P1;SDS_P2;PMS_P1;PMS_P2;Temp;Humidity;BMP_temperature;BMP_pressure;BME280_temperature;BME280_humidity;BME280_pressure;Samples;Min_cycle;Max_cycle;Signal;HPM_P1;HPM_P2
2021/05/08 03:55:31;;;;;;;4.32;3.72;;;2.10;88.30;;;;;;4995040;28;20086;-67
2021/05/08 03:57:56;;;;;;;4.43;3.85;;;2.50;84.70;;;;;;4995422;28;20069;-67
2021/05/08 04:00:22;;;;;;;4.40;3.60;;;2.90;81.40;;;;;;4995784;28;20057;-68
2021/05/08 04:02:48;;;;;;;4.07;3.45;;;3.10;79.90;;;;;;4995978;28;20023;-67
2021/05/08 04:05:14;;;;;;;4.13;3.13;;;3.40;78.20;;;;;;4995696;28;20474;-67
2021/05/08 04:07:39;;;;;;;4.05;3.55;;;3.70;76.50;;;;;;4995965;28;20406;-67
2021/05/08 04:10:06;;;;;;;3.72;2.97;;;4.00;74.70;;;;;;4995343;28;20034;-67
2021/05/08 04:12:31;;;;;;;4.03;3.22;;;4.30;73.50;;;;;;4995623;28;20517;-68
2021/05/08 04:14:57;;;;;;;4.22;3.40;;;4.60;72.00;;;;;;4995156;28;20030;-67
2021/05/08 04:17:23;;;;;;;4.32;3.20;;;5.00;70.70;;;;;;4995366;28;20026;-68
2021/05/08 04:19:48;;;;;;;4.43;3.55;;;5.30;69.80;;;;;;4995310;28;20085;-68
2021/05/08 04:22:14;;;;;;;3.30;3.00;;;5.60;68.20;;;;;;4995172;28;20068;-68
2021/05/08 04:24:40;;;;;;;5.03;3.45;;;5.80;67.40;;;;;;4995468;28;20472;-68
2021/05/08 04:27:06;;;;;;;3.60;3.20;;;6.00;66.70;;;;;;4995162;28;20165;-67
2021/05/08 04:29:32;;;;;;;3.72;2.97;;;6.30;65.50;;;;;;4995150;28;20023;-66
2021/05/08 04:31:57;;;;;;;3.17;2.83;;;6.50;65.30;;;;;;4994883;28;20133;-67
2021/05/08 04:34:23;;;;;;;3.60;3.10;;;6.70;63.90;;;;;;4995194;28;20014;-63
2021/05/08 04:36:49;;;;;;;2.50;2.25;;;6.90;63.90;;;;;;4995349;28;20378;-66
2021/05/08 04:39:15;;;;;;;3.70;2.55;;;7.70;75.10;;;;;;4994696;28;20429;-68
2021/05/08 04:41:40;;;;;;;2.72;2.50;;;9.70;80.60;;;;;;4995364;28;20023;-68
2021/05/08 04:44:06;;;;;;;3.03;2.65;;;11.20;71.90;;;;;;4994649;28;20648;-68
2021/05/08 04:46:32;;;;;;;4.43;2.58;;;12.00;65.70;;;;;;4995228;28;20025;-64
2021/05/08 04:48:58;;;;;;;3.70;2.40;;;12.70;65.70;;;;;;4995127;28;20077;-65
2021/05/08 04:51:24;;;;;;;5.47;2.17;;;13.50;62.70;;;;;;4994634;28;20032;-66
2021/05/08 04:53:49;;;;;;;7.13;2.10;;;14.10;65.40;;;;;;4994027;28;20517;-66
2021/05/08 04:56:16;;;;;;;4.60;2.20;;;15.00;61.30;;;;;;4993590;28;20051;-66
2021/05/08 04:58:43;;;;;;;3.25;2.10;;;15.40;58.50;;;;;;4985005;28;20506;-66
2021/05/08 05:01:10;;;;;;;2.50;2.28;;;15.70;56.40;;;;;;4991043;28;20521;-66
2021/05/08 05:03:36;;;;;;;2.00;1.80;;;15.80;55.50;;;;;;4979948;28;20027;-66
2021/05/08 05:06:03;;;;;;;1.80;1.70;;;16.20;54.30;;;;;;4990231;28;20030;-67
2021/05/08 05:08:29;;;;;;;1.80;1.70;;;16.30;54.20;;;;;;4982110;28;20023;-67
2021/05/08 05:10:55;;;;;;;2.20;1.63;;;16.60;54.20;;;;;;4993472;28;20390;-67
2021/05/08 05:13:23;;;;;;;2.25;1.65;;;16.80;52.40;;;;;;4993402;28;20038;-67
2021/05/08 05:15:49;;;;;;;2.70;1.90;;;16.90;51.50;;;;;;4994419;28;20068;-68
2021/05/08 05:18:15;;;;;;;2.28;1.90;;;17.00;50.60;;;;;;4993885;28;20035;-69
2021/05/08 05:20:41;;;;;;;1.73;1.63;;;17.00;49.40;;;;;;4993996;28;20022;-67
2021/05/08 05:23:08;;;;;;;3.28;1.55;;;16.70;43.10;;;;;;4993735;28;20022;-67
2021/05/08 05:25:34;;;;;;;2.55;1.70;;;15.30;44.30;;;;;;4993844;28;20018;-67
2021/05/08 05:28:00;;;;;;;1.60;1.50;;;14.10;44.30;;;;;;4994418;28;20030;-67
2021/05/08 05:30:26;;;;;;;1.50;1.40;;;13.10;45.40;;;;;;4994179;28;20027;-67
2021/05/08 05:32:52;;;;;;;2.35;1.70;;;12.50;46.10;;;;;;4994027;28;20486;-67
2021/05/08 05:35:18;;;;;;;1.60;1.50;;;12.30;47.10;;;;;;4993922;28;20093;-67
2021/05/08 05:37:44;;;;;;;2.13;1.73;;;12.20;47.90;;;;;;4993874;28;20042;-66
2021/05/08 05:40:10;;;;;;;1.88;1.52;;;12.10;47.20;;;;;;4993896;28;20054;-67
2021/05/08 05:42:36;;;;;;;1.48;1.38;;;12.20;47.50;;;;;;4993924;28;20016;-66
2021/05/08 05:45:02;;;;;;;3.55;1.58;;;12.20;47.20;;;;;;4993585;28;20101;-66
2021/05/08 05:47:31;;;;;;;1.90;1.70;;;12.20;47.20;;;;;;4993615;28;20081;-66
2021/05/08 05:49:57;;;;;;;3.03;1.40;;;12.20;47.20;;;;;;4993472;28;20031;-68
2021/05/08 05:52:23;;;;;;;2.00;1.33;;;12.40;47.10;;;;;;4993816;28;20045;-66
2021/05/08 05:54:50;;;;;;;1.30;1.20;;;12.40;46.40;;;;;;4993448;28;20018;-66
2021/05/08 05:57:16;;;;;;;1.48;1.38;;;12.40;46.20;;;;;;4993329;28;20487;-66
2021/05/08 05:59:43;;;;;;;1.10;1.00;;;12.50;46.60;;;;;;4989526;28;20025;-66
2021/05/08 06:02:10;;;;;;;1.65;1.17;;;12.50;46.80;;;;;;4993290;28;20027;-66
2021/05/08 06:04:36;;;;;;;1.42;1.20;;;12.70;46.70;;;;;;4994604;28;20390;-69
2021/05/08 06:07:02;;;;;;;1.80;1.70;;;12.80;46.50;;;;;;4976920;28;20478;-68
2021/05/08 06:09:28;;;;;;;1.88;0.90;;;13.00;46.50;;;;;;4992648;28;20030;-69
2021/05/08 06:11:56;;;;;;;1.20;1.10;;;13.00;45.90;;;;;;4992443;28;20038;-68
2021/05/08 06:14:25;;;;;;;1.30;1.13;;;12.90;45.60;;;;;;4982424;28;20037;-68
2021/05/08 06:16:54;;;;;;;1.87;1.00;;;12.80;46.10;;;;;;4985729;28;20109;-67
2021/05/08 06:19:19;;;;;;;1.88;1.13;;;12.80;46.40;;;;;;4987240;28;20101;-68
2021/05/08 06:21:45;;;;;;;0.73;0.73;;;12.80;46.30;;;;;;4993457;28;20113;-68
2021/05/08 06:24:11;;;;;;;2.80;0.95;;;12.80;46.00;;;;;;4992725;28;20094;-68
2021/05/08 06:26:37;;;;;;;0.82;0.80;;;12.90;46.60;;;;;;4988596;28;20041;-68
2021/05/08 06:29:04;;;;;;;1.13;0.80;;;13.10;46.30;;;;;;4990221;28;20024;-68
2021/05/08 06:31:30;;;;;;;0.73;0.73;;;13.30;46.30;;;;;;4986004;28;20103;-66
2021/05/08 06:33:56;;;;;;;0.88;0.85;;;13.50;45.90;;;;;;4992364;28;20026;-64
2021/05/08 06:36:22;;;;;;;1.17;0.70;;;13.60;45.80;;;;;;4992595;28;20027;-66
2021/05/08 06:38:48;;;;;;;6.28;1.00;;;13.50;46.10;;;;;;4992610;28;20029;-64
2021/05/08 06:41:14;;;;;;;3.53;0.60;;;13.50;46.50;;;;;;4992188;28;20023;-64
2021/05/08 06:43:40;;;;;;;2.05;0.60;;;13.20;46.40;;;;;;4992242;28;20038;-67
2021/05/08 06:46:08;;;;;;;0.70;0.70;;;13.00;47.50;;;;;;4992821;28;20057;-66
2021/05/08 06:48:34;;;;;;;2.70;0.70;;;13.00;46.90;;;;;;5001406;28;20030;-66
2021/05/08 06:51:00;;;;;;;1.88;0.70;;;13.00;47.30;;;;;;4999748;28;20494;-67
2021/05/08 06:53:26;;;;;;;1.05;0.65;;;13.00;48.00;;;;;;4992536;28;20088;-68
2021/05/08 06:55:52;;;;;;;2.33;0.68;;;13.10;46.90;;;;;;4991869;28;20467;-69
2021/05/08 06:58:17;;;;;;;2.55;0.88;;;13.50;50.00;;;;;;4986810;28;20045;-69
2021/05/08 07:00:43;;;;;;;3.05;0.77;;;13.60;46.50;;;;;;4992482;28;20081;-69
2021/05/08 07:03:09;;;;;;;1.55;0.73;;;13.70;46.60;;;;;;4992337;28;20435;-69
2021/05/08 07:05:34;;;;;;;4.05;1.38;;;13.70;46.30;;;;;;4992166;28;20457;-65
2021/05/08 07:08:05;;;;;;;4.93;1.10;;;13.90;53.80;;;;;;4986802;28;20027;-66
2021/05/08 07:10:32;;;;;;;2.83;0.50;;;14.80;54.80;;;;;;4989461;28;20050;-67
2021/05/08 07:12:58;;;;;;;4.45;0.90;;;15.50;52.90;;;;;;4992412;28;20449;-68
2021/05/08 07:15:24;;;;;;;3.10;1.00;;;15.30;46.20;;;;;;4992103;28;20110;-70
2021/05/08 07:18:19;;;;;;;4.20;0.77;;;15.00;50.10;;;;;;4992617;28;20030;-70
2021/05/08 07:20:45;;;;;;;1.85;0.90;;;15.40;52.60;;;;;;4962874;28;20030;-71
2021/05/08 07:23:10;;;;;;;1.48;1.15;;;15.80;52.70;;;;;;4992135;28;20499;-70
2021/05/08 07:25:37;;;;;;;1.88;0.90;;;16.10;52.70;;;;;;4991544;28;20026;-70
2021/05/08 07:28:13;;;;;;;2.17;1.08;;;16.20;52.30;;;;;;4991901;28;20494;-69
2021/05/08 07:30:40;;;;;;;4.65;1.15;;;16.30;52.10;;;;;;4992364;28;20162;-69
2021/05/08 07:33:06;;;;;;;0.57;0.50;;;16.40;51.80;;;;;;4992135;28;20030;-73
2021/05/08 07:35:32;;;;;;;0.60;0.40;;;16.20;46.40;;;;;;4992131;28;20466;-73
2021/05/08 07:37:58;;;;;;;0.93;0.40;;;15.50;44.20;;;;;;4991543;28;20498;-71
2021/05/08 07:40:24;;;;;;;0.50;0.50;;;14.80;44.00;;;;;;4991613;28;20030;-74
2021/05/08 07:42:49;;;;;;;17.42;1.85;;;14.20;44.10;;;;;;4991806;28;20698;-75
2021/05/08 07:45:15;;;;;;;0.88;0.57;;;14.30;48.40;;;;;;4991621;28;20035;-75
2021/05/08 07:47:41;;;;;;;0.38;0.38;;;14.20;44.60;;;;;;4991735;28;20026;-75
2021/05/08 07:50:08;;;;;;;0.68;0.52;;;13.80;44.50;;;;;;4991908;28;20034;-75
2021/05/08 07:52:34;;;;;;;0.65;0.50;;;13.50;44.60;;;;;;4991760;28;20030;-75
2021/05/08 07:55:00;;;;;;;0.85;0.52;;;13.30;44.70;;;;;;4991446;28;20023;-74
2021/05/08 07:57:26;;;;;;;1.40;0.52;;;13.30;45.10;;;;;;4991519;28;20034;-75
2021/05/08 07:59:52;;;;;;;0.60;0.60;;;13.10;44.50;;;;;;4991642;28;20029;-75
2021/05/08 08:02:18;;;;;;;0.85;0.45;;;12.90;44.90;;;;;;4991678;28;20030;-75
2021/05/08 08:04:44;;;;;;;0.93;0.50;;;12.90;45.00;;;;;;4991239;28;20019;-73
2021/05/08 08:07:09;;;;;;;2.05;0.45;;;12.80;47.00;;;;;;4991089;28;20030;-72
2021/05/08 08:09:35;;;;;;;1.15;0.70;;;13.50;49.40;;;;;;4991524;28;20076;-72
2021/05/08 08:12:01;;;;;;;5.45;0.70;;;13.40;44.00;;;;;;4991788;28;20045;-72
2021/05/08 08:14:26;;;;;;;0.50;0.50;;;13.00;44.20;;;;;;4991583;28;20037;-72
2021/05/08 08:16:52;;;;;;;1.80;0.60;;;12.70;44.80;;;;;;4992068;28;20026;-72
2021/05/08 08:19:18;;;;;;;0.50;0.50;;;12.60;45.40;;;;;;4991392;28;20026;-72
2021/05/08 08:21:44;;;;;;;0.52;0.50;;;12.40;45.00;;;;;;4991845;28;20034;-73
2021/05/08 08:24:09;;;;;;;3.90;0.50;;;12.10;45.20;;;;;;4991575;28;20052;-74
2021/05/08 08:26:39;;;;;;;2.65;1.35;;;11.90;45.50;;;;;;4991629;28;20106;-73
2021/05/08 08:29:05;;;;;;;3.97;0.70;;;11.70;44.70;;;;;;4991505;28;20030;-73
2021/05/08 08:31:30;;;;;;;3.45;0.50;;;11.50;45.50;;;;;;4991770;28;20526;-73
2021/05/08 08:33:56;;;;;;;0.50;0.50;;;11.30;45.50;;;;;;4991681;28;20026;-73
2021/05/08 08:36:22;;;;;;;0.80;0.80;;;11.20;46.00;;;;;;4991544;28;20038;-73
2021/05/08 08:38:47;;;;;;;1.77;0.60;;;11.20;46.70;;;;;;4994542;28;20467;-73
2021/05/08 08:41:13;;;;;;;0.43;0.43;;;11.30;46.90;;;;;;4994721;28;20035;-73
2021/05/08 08:43:42;;;;;;;11.30;1.88;;;11.20;46.00;;;;;;4994714;28;20368;-70
2021/05/08 08:46:10;;;;;;;1.58;0.60;;;11.30;48.70;;;;;;4980985;28;20023;-73
2021/05/08 08:48:38;;;;;;;0.40;0.40;;;12.20;51.50;;;;;;4994830;28;20045;-73
2021/05/08 08:51:05;;;;;;;0.57;0.57;;;12.00;45.00;;;;;;4989203;28;20015;-73
2021/05/08 08:53:31;;;;;;;0.70;0.70;;;11.70;44.70;;;;;;4991834;28;20616;-72
2021/05/08 08:55:58;;;;;;;2.83;0.50;;;11.70;45.00;;;;;;4993884;28;20045;-73
2021/05/08 08:58:38;;;;;;;0.60;0.60;;;11.60;44.60;;;;;;4994527;28;20050;-73
2021/05/08 09:01:05;;;;;;;1.33;0.73;;;11.60;45.40;;;;;;4991554;28;20107;-73
2021/05/08 09:03:32;;;;;;;1.58;0.68;;;11.70;45.60;;;;;;4993935;28;20182;-73
2021/05/08 09:06:00;;;;;;;2.45;0.50;;;11.70;45.50;;;;;;4987155;28;20505;-73
2021/05/08 09:08:29;;;;;;;3.85;1.08;;;11.70;44.70;;;;;;4992138;28;20038;-73
2021/05/08 09:11:18;;;;;;;4.55;0.63;;;11.60;44.70;;;;;;4980908;28;20026;-73
2021/05/08 09:13:44;;;;;;;1.10;0.38;;;11.50;44.30;;;;;;4994190;28;20065;-73
2021/05/08 09:16:09;;;;;;;1.88;0.40;;;11.40;43.50;;;;;;4994178;28;20054;-74
2021/05/08 09:18:38;;;;;;;0.60;0.60;;;11.40;43.40;;;;;;4994703;28;20479;-73
2021/05/08 09:21:05;;;;;;;0.40;0.40;;;11.30;43.70;;;;;;4994504;28;20062;-73
2021/05/08 09:23:41;;;;;;;3.13;0.60;;;11.20;43.40;;;;;;4994303;28;20027;-73
2021/05/08 09:26:11;;;;;;;1.60;1.13;;;11.20;43.90;;;;;;4994154;28;20042;-73
2021/05/08 09:28:39;;;;;;;0.82;0.50;;;11.20;43.90;;;;;;4994436;28;20069;-73
2021/05/08 09:31:11;;;;;;;0.50;0.50;;;11.20;44.10;;;;;;4993794;28;20023;-73
2021/05/08 09:33:37;;;;;;;31.60;2.58;;;11.20;44.30;;;;;;4993875;28;20497;-73
2021/05/08 09:36:07;;;;;;;0.60;0.55;;;11.30;44.50;;;;;;4994072;28;20030;-74
2021/05/08 09:38:40;;;;;;;0.65;0.60;;;11.30;44.40;;;;;;4994134;28;20026;-74
2021/05/08 09:41:08;;;;;;;1.85;0.50;;;11.40;44.30;;;;;;4993948;28;20383;-71
2021/05/08 09:43:36;;;;;;;0.50;0.50;;;11.40;44.40;;;;;;4993791;28;20023;-69
2021/05/08 09:46:03;;;;;;;0.60;0.60;;;11.50;44.30;;;;;;4983392;28;20034;-69
2021/05/08 09:48:31;;;;;;;0.52;0.50;;;11.60;44.10;;;;;;4989645;28;20031;-68
2021/05/08 09:51:24;;;;;;;1.52;0.70;;;11.60;44.00;;;;;;4987845;28;20569;-69
2021/05/08 09:53:52;;;;;;;2.63;0.55;;;11.60;43.40;;;;;;4980913;28;20364;-70
2021/05/08 09:56:46;;;;;;;0.82;0.60;;;11.50;43.10;;;;;;4992854;28;20054;-71
2021/05/08 09:59:28;;;;;;;0.90;0.65;;;11.50;43.70;;;;;;4993779;28;20030;-71
2021/05/08 10:02:03;;;;;;;0.60;0.60;;;11.60;43.60;;;;;;4993622;28;20030;-70
2021/05/08 10:04:33;;;;;;;1.13;0.70;;;11.60;43.20;;;;;;4975911;28;20307;-71
2021/05/08 10:07:17;;;;;;;3.88;0.70;;;11.60;43.50;;;;;;4993630;28;20018;-71
2021/05/08 10:09:45;;;;;;;0.60;0.60;;;11.60;43.30;;;;;;4993250;28;20061;-71
2021/05/08 10:12:12;;;;;;;3.30;0.90;;;11.60;43.60;;;;;;4992571;28;20052;-70
2021/05/08 10:14:41;;;;;;;1.58;0.65;;;11.70;43.50;;;;;;4992733;28;20062;-71
2021/05/08 10:17:10;;;;;;;0.70;0.50;;;11.80;43.00;;;;;;4991729;28;20026;-72
2021/05/08 10:19:38;;;;;;;0.52;0.52;;;11.70;42.80;;;;;;4981820;28;20160;-72
2021/05/08 10:22:07;;;;;;;1.63;0.90;;;11.70;42.80;;;;;;4987079;28;20030;-71
2021/05/08 10:24:35;;;;;;;3.90;0.73;;;11.70;44.70;;;;;;4981103;28;20030;-72
2021/05/08 10:27:01;;;;;;;39.97;2.60;;;11.80;43.70;;;;;;4993111;28;20101;-73
2021/05/08 10:29:31;;;;;;;4.28;1.00;;;11.70;43.50;;;;;;4992587;28;20030;-73
2021/05/08 10:32:00;;;;;;;4.50;0.95;;;11.70;47.50;;;;;;4993022;28;20034;-72
2021/05/08 10:34:59;;;;;;;2.17;0.88;;;11.60;47.10;;;;;;4992625;28;20030;-73
2021/05/08 10:37:26;;;;;;;3.22;0.52;;;11.50;46.40;;;;;;4986590;28;20437;-73
2021/05/08 10:39:57;;;;;;;19.00;2.70;;;11.50;46.70;;;;;;4992771;28;20027;-73
2021/05/08 10:42:39;;;;;;;1.15;0.60;;;11.50;49.00;;;;;;4992787;28;20088;-73
2021/05/08 10:45:18;;;;;;;6.45;2.00;;;11.40;47.90;;;;;;4966533;28;20023;-73
2021/05/08 10:47:56;;;;;;;4.35;1.77;;;11.40;49.50;;;;;;4984131;28;20035;-73
2021/05/08 10:50:37;;;;;;;1.23;0.80;;;11.50;53.30;;;;;;4981639;28;20029;-73
2021/05/08 10:53:02;;;;;;;1.30;0.70;;;11.90;51.10;;;;;;4992015;28;20141;-71
2021/05/08 10:55:30;;;;;;;2.90;0.70;;;11.70;45.50;;;;;;4991946;28;20637;-71
2021/05/08 10:58:14;;;;;;;4.47;0.60;;;11.40;46.40;;;;;;4992550;28;20035;-70
2021/05/08 11:00:50;;;;;;;1.48;0.52;;;11.20;46.60;;;;;;4982597;28;20383;-71
2021/05/08 11:03:16;;;;;;;3.30;0.70;;;11.10;48.10;;;;;;4992365;28;20026;-70
2021/05/08 11:06:04;;;;;;;3.10;0.70;;;11.00;48.20;;;;;;4992505;28;20032;-71
2021/05/08 11:08:30;;;;;;;5.03;1.00;;;10.90;48.70;;;;;;4992043;28;20482;-70
2021/05/08 11:11:03;;;;;;;2.03;0.88;;;10.90;48.60;;;;;;4992241;28;20030;-70
2021/05/08 11:13:41;;;;;;;1.15;0.68;;;10.90;48.80;;;;;;4992232;28;20462;-70
2021/05/08 11:16:24;;;;;;;11.15;1.15;;;11.00;48.40;;;;;;4979635;28;20077;-70
2021/05/08 11:18:54;;;;;;;5.53;2.45;;;11.10;51.20;;;;;;4991938;28;20026;-68
2021/05/08 11:21:21;;;;;;;6.97;3.85;;;11.70;57.10;;;;;;4991954;28;20034;-73
2021/05/08 11:24:03;;;;;;;9.20;3.45;;;12.70;58.60;;;;;;4992423;28;20048;-68
2021/05/08 11:26:29;;;;;;;0.60;0.60;;;13.30;56.50;;;;;;4983946;28;20050;-71
2021/05/08 11:29:24;;;;;;;0.50;0.50;;;13.80;52.20;;;;;;4991916;28;20050;-71
2021/05/08 11:31:56;;;;;;;0.50;0.50;;;13.30;45.90;;;;;;4991975;28;20018;-71
2021/05/08 11:34:26;;;;;;;0.60;0.60;;;12.70;46.60;;;;;;4989416;28;20018;-71
2021/05/08 11:37:10;;;;;;;1.45;0.40;;;12.30;46.50;;;;;;4992119;28;20068;-71
2021/05/08 11:39:45;;;;;;;0.63;0.50;;;12.00;45.90;;;;;;4990051;28;20482;-71
2021/05/08 11:42:25;;;;;;;0.65;0.55;;;11.80;46.50;;;;;;4992225;28;20027;-71
2021/05/08 11:44:59;;;;;;;0.50;0.50;;;11.70;46.20;;;;;;4991815;28;20022;-71
2021/05/08 11:47:29;;;;;;;0.40;0.40;;;11.60;45.90;;;;;;4991823;28;20058;-71
2021/05/08 11:50:14;;;;;;;;;;;11.60;45.80;;;;;;4992191;28;20494;-71
2021/05/08 11:52:42;;;;;;;1.38;0.40;;;11.50;44.80;;;;;;4991642;28;19913;-72
2021/05/08 11:55:16;;;;;;;2.83;0.60;;;11.40;46.10;;;;;;4981396;28;20034;-71
2021/05/08 11:57:45;;;;;;;0.40;0.40;;;11.40;46.20;;;;;;4989463;28;20076;-71
2021/05/08 12:00:23;;;;;;;0.85;0.60;;;11.40;45.70;;;;;;4973758;28;20430;-71
2021/05/08 12:02:49;;;;;;;0.90;0.40;;;11.30;45.10;;;;;;4991235;28;20019;-71
2021/05/08 12:05:15;;;;;;;2.13;0.55;;;11.20;45.10;;;;;;4991165;28;20058;-71
2021/05/08 12:07:43;;;;;;;1.00;0.50;;;11.30;46.60;;;;;;4991384;28;20407;-71
2021/05/08 12:10:21;;;;;;;2.88;0.60;;;11.30;45.80;;;;;;4990831;28;20034;-71
2021/05/08 12:12:48;;;;;;;3.28;0.60;;;11.50;47.30;;;;;;4973879;28;20097;-71
2021/05/08 12:15:20;;;;;;;1.13;0.63;;;11.50;44.80;;;;;;4994756;28;20022;-72
2021/05/08 12:17:46;;;;;;;3.15;0.40;;;11.50;44.70;;;;;;4994490;28;20022;-72
2021/05/08 12:20:12;;;;;;;2.17;0.60;;;11.40;44.50;;;;;;4994878;28;20451;-71
2021/05/08 12:22:38;;;;;;;0.45;0.40;;;11.50;44.10;;;;;;4976990;28;20068;-71
2021/05/08 12:25:33;;;;;;;1.17;0.73;;;11.50;44.70;;;;;;4991807;28;20219;-72
2021/05/08 12:28:21;;;;;;;2.08;0.50;;;11.40;44.20;;;;;;4987211;28;20034;-72
2021/05/08 12:30:49;;;;;;;6.80;0.60;;;11.40;44.70;;;;;;4992445;28;20113;-72
2021/05/08 12:33:23;;;;;;;0.40;0.40;;;11.40;45.50;;;;;;4994883;28;20045;-72
2021/05/08 12:35:49;;;;;;;0.52;0.50;;;11.40;44.90;;;;;;4994573;28;20386;-72
2021/05/08 12:38:21;;;;;;;1.63;0.50;;;11.40;45.10;;;;;;4994622;28;20643;-72
2021/05/08 12:40:50;;;;;;;0.57;0.47;;;11.40;45.20;;;;;;4994489;28;20041;-72
2021/05/08 12:43:30;;;;;;;2.17;0.50;;;11.30;45.20;;;;;;4988051;28;20031;-72
2021/05/08 12:45:59;;;;;;;1.02;0.50;;;11.30;44.10;;;;;;4988673;28;20030;-72
2021/05/08 12:48:30;;;;;;;0.65;0.40;;;11.30;43.60;;;;;;4994608;28;20105;-72
2021/05/08 12:50:56;;;;;;;;;;;11.20;43.90;;;;;;4988758;28;20038;-72
2021/05/08 12:53:22;;;;;;;1.77;0.57;;;11.20;43.80;;;;;;4994275;28;20357;-72
2021/05/08 12:56:04;;;;;;;0.52;0.40;;;11.20;44.60;;;;;;4984583;28;20388;-72
2021/05/08 12:58:35;;;;;;;3.90;0.40;;;11.30;44.10;;;;;;4994237;28;20078;-71
2021/05/08 13:01:01;;;;;;;0.38;0.38;;;11.40;44.00;;;;;;4992398;28;20133;-71
2021/05/08 13:03:40;;;;;;;0.55;0.40;;;11.40;43.70;;;;;;4992193;28;20549;-72
2021/05/08 13:06:08;;;;;;;1.42;0.45;;;11.30;43.30;;;;;;4989665;28;20039;-72
2021/05/08 13:08:47;;;;;;;5.43;0.73;;;11.30;43.90;;;;;;4989659;28;20117;-72
2021/05/08 13:11:32;;;;;;;3.10;0.60;;;11.20;44.40;;;;;;4988198;28;20604;-72
2021/05/08 13:14:20;;;;;;;1.70;0.40;;;11.20;44.70;;;;;;4988319;28;20269;-72
2021/05/08 13:16:47;;;;;;;0.43;0.43;;;11.10;44.20;;;;;;4993539;28;20033;-72
2021/05/08 13:19:16;;;;;;;0.40;0.40;;;11.00;44.60;;;;;;4989764;28;20101;-70
2021/05/08 13:21:42;;;;;;;2.58;0.60;;;11.00;44.90;;;;;;4988132;28;20080;-71
2021/05/08 13:24:08;;;;;;;0.73;0.55;;;11.00;44.80;;;;;;4992607;28;20394;-71
2021/05/08 13:26:34;;;;;;;1.23;0.60;;;11.00;44.80;;;;;;4993318;28;20025;-71
2021/05/08 13:29:00;;;;;;;0.68;0.43;;;11.00;44.50;;;;;;4993062;28;20026;-72
2021/05/08 13:31:26;;;;;;;0.60;0.40;;;11.00;44.40;;;;;;4991598;28;20037;-72
2021/05/08 13:33:51;;;;;;;1.10;0.40;;;10.90;44.20;;;;;;4985198;28;20034;-71
2021/05/08 13:36:19;;;;;;;0.65;0.40;;;10.80;44.90;;;;;;4990951;28;20400;-72
2021/05/08 13:38:49;;;;;;;0.60;0.50;;;10.80;44.80;;;;;;4988721;28;20418;-71
2021/05/08 13:41:15;;;;;;;6.33;0.80;;;10.70;44.90;;;;;;4992465;28;20018;-70
2021/05/08 13:43:41;;;;;;;0.85;0.60;;;10.70;45.20;;;;;;4991883;28;20084;-71
2021/05/08 13:46:07;;;;;;;0.50;0.50;;;10.70;47.80;;;;;;4991672;28;20068;-70
2021/05/08 13:48:32;;;;;;;1.15;0.63;;;10.80;45.10;;;;;;4992806;28;20038;-71
2021/05/08 13:50:58;;;;;;;0.90;0.60;;;10.70;44.90;;;;;;4989111;28;20025;-70
2021/05/08 13:53:24;;;;;;;1.27;0.60;;;10.70;45.20;;;;;;4974886;28;20541;-70
2021/05/08 13:55:50;;;;;;;3.08;0.70;;;10.70;45.20;;;;;;4984992;28;20406;-70
2021/05/08 13:58:16;;;;;;;1.13;0.50;;;10.70;45.40;;;;;;4972746;28;20028;-70
2021/05/08 14:00:42;;;;;;;1.95;0.70;;;10.70;45.80;;;;;;4992363;28;20025;-70
2021/05/08 14:03:08;;;;;;;1.58;0.65;;;10.80;45.60;;;;;;4976271;28;20185;-70
2021/05/08 14:05:34;;;;;;;2.85;0.55;;;10.80;45.60;;;;;;4989452;28;20061;-70
2021/05/08 14:07:59;;;;;;;0.90;0.50;;;10.80;45.70;;;;;;4992019;28;20088;-70
2021/05/08 14:10:25;;;;;;;0.30;0.30;;;10.80;45.10;;;;;;4982122;28;20102;-70
2021/05/08 14:12:51;;;;;;;0.60;0.60;;;10.80;45.00;;;;;;4980757;28;20042;-70
2021/05/08 14:15:17;;;;;;;4.25;0.50;;;10.80;45.50;;;;;;4980328;28;20436;-70
2021/05/08 14:17:42;;;;;;;1.30;0.55;;;10.80;45.80;;;;;;4979134;28;20027;-71
2021/05/08 14:20:10;;;;;;;0.77;0.50;;;10.70;46.30;;;;;;4978166;28;20058;-72
2021/05/08 14:22:36;;;;;;;0.73;0.60;;;10.60;46.40;;;;;;4980498;28;20073;-71
2021/05/08 14:25:08;;;;;;;0.80;0.60;;;10.50;46.80;;;;;;4975517;28;20098;-71
2021/05/08 14:27:34;;;;;;;0.47;0.47;;;10.40;47.10;;;;;;4976187;28;20077;-70
2021/05/08 14:30:01;;;;;;;2.50;0.50;;;10.50;46.70;;;;;;4977618;28;20030;-72
2021/05/08 14:32:27;;;;;;;0.50;0.50;;;10.50;46.20;;;;;;4985168;28;20434;-71
2021/05/08 14:34:54;;;;;;;0.50;0.50;;;10.50;46.30;;;;;;4977333;28;20395;-72
2021/05/08 14:37:20;;;;;;;0.65;0.65;;;10.50;45.10;;;;;;4973862;28;20026;-71
2021/05/08 14:39:45;;;;;;;0.95;0.40;;;10.50;45.70;;;;;;4981562;28;20114;-71
2021/05/08 14:42:12;;;;;;;10.32;0.80;;;10.60;46.00;;;;;;4978437;28;20422;-71
2021/05/08 14:44:38;;;;;;;0.32;0.32;;;10.60;45.60;;;;;;4972674;28;20026;-71
2021/05/08 14:47:04;;;;;;;0.63;0.38;;;10.70;45.00;;;;;;4981611;28;20019;-70
2021/05/08 14:49:30;;;;;;;1.15;0.60;;;10.70;44.00;;;;;;4976876;28;20031;-70
2021/05/08 14:51:56;;;;;;;0.75;0.50;;;10.60;43.60;;;;;;4980089;28;20038;-69
2021/05/08 14:54:22;;;;;;;0.40;0.40;;;10.60;43.60;;;;;;4979478;28;20386;-71
2021/05/08 14:56:48;;;;;;;0.98;0.70;;;10.50;43.10;;;;;;4959067;28;20094;-71
2021/05/08 14:59:14;;;;;;;1.33;0.60;;;10.50;43.70;;;;;;4960532;28;20026;-72
2021/05/08 15:01:40;;;;;;;5.80;0.88;;;10.50;45.00;;;;;;4980279;28;20478;-71
2021/05/08 15:04:06;;;;;;;7.38;0.77;;;10.40;45.50;;;;;;4977354;28;20030;-71
2021/05/08 15:06:32;;;;;;;0.40;0.40;;;10.40;45.60;;;;;;4976457;28;20077;-69
2021/05/08 15:08:58;;;;;;;2.47;0.50;;;10.40;45.80;;;;;;4978388;28;20081;-70
2021/05/08 15:11:25;;;;;;;0.45;0.45;;;10.40;46.80;;;;;;4957260;28;20097;-70
2021/05/08 15:13:50;;;;;;;0.68;0.55;;;10.30;45.90;;;;;;4979409;28;20023;-71
2021/05/08 15:16:16;;;;;;;1.75;0.70;;;10.40;45.80;;;;;;4976938;28;20023;-71
2021/05/08 15:18:42;;;;;;;0.55;0.55;;;10.40;45.20;;;;;;4976640;28;20035;-71
2021/05/08 15:21:08;;;;;;;5.55;0.63;;;10.40;45.10;;;;;;4979944;28;20026;-71
2021/05/08 15:23:34;;;;;;;4.85;0.70;;;10.40;45.50;;;;;;4975597;28;20038;-71
2021/05/08 15:26:00;;;;;;;4.57;1.65;;;10.40;46.20;;;;;;4978442;28;20414;-70
2021/05/08 15:28:26;;;;;;;3.55;1.85;;;10.40;45.50;;;;;;4971872;28;20026;-71
2021/05/08 15:30:52;;;;;;;3.50;1.00;;;10.50;45.40;;;;;;4976485;28;20015;-71
2021/05/08 15:33:18;;;;;;;2.75;0.60;;;10.50;45.40;;;;;;4976513;28;20518;-71
2021/05/08 15:35:43;;;;;;;0.90;0.60;;;10.50;45.60;;;;;;4973619;28;20113;-71
2021/05/08 15:38:09;;;;;;;0.40;0.40;;;10.50;45.50;;;;;;4979777;28;20445;-71
2021/05/08 15:40:35;;;;;;;0.45;0.40;;;10.50;45.60;;;;;;4974894;28;20069;-71
2021/05/08 15:43:01;;;;;;;0.77;0.50;;;10.40;45.60;;;;;;4975288;28;20049;-71
2021/05/08 15:45:27;;;;;;;0.75;0.40;;;10.40;45.80;;;;;;4975677;28;20027;-73
2021/05/08 15:47:52;;;;;;;3.38;0.50;;;10.50;45.90;;;;;;4978649;28;20165;-70
2021/05/08 15:50:18;;;;;;;2.38;0.50;;;10.40;45.80;;;;;;4981329;28;20486;-71
2021/05/08 15:52:44;;;;;;;0.40;0.40;;;10.50;46.00;;;;;;4987234;28;20035;-72
2021/05/08 15:55:10;;;;;;;0.50;0.40;;;10.40;45.40;;;;;;4984465;28;20404;-73
2021/05/08 15:57:36;;;;;;;2.50;0.80;;;10.40;45.30;;;;;;4985312;28;20034;-73
2021/05/08 16:00:04;;;;;;;4.80;1.20;;;10.40;46.10;;;;;;4983904;28;20156;-68
2021/05/08 16:02:29;;;;;;;1.92;1.60;;;11.00;57.50;;;;;;4980937;28;20030;-70
2021/05/08 16:04:55;;;;;;;1.60;0.50;;;11.70;51.80;;;;;;4982723;28;20027;-70
2021/05/08 16:07:21;;;;;;;1.40;0.55;;;11.60;46.20;;;;;;4995660;28;20030;-70
2021/05/08 16:09:47;;;;;;;0.45;0.43;;;11.30;45.40;;;;;;4995903;28;20030;-70
2021/05/08 16:12:13;;;;;;;1.58;0.57;;;11.00;45.50;;;;;;4995708;28;20038;-69
2021/05/08 16:14:39;;;;;;;0.60;0.50;;;10.90;45.70;;;;;;4995400;28;20422;-70
2021/05/08 16:17:06;;;;;;;0.40;0.40;;;10.70;46.50;;;;;;4995301;28;20026;-70
2021/05/08 16:19:32;;;;;;;0.65;0.55;;;10.60;46.20;;;;;;4995218;28;20038;-70
2021/05/08 16:21:57;;;;;;;2.55;0.73;;;10.60;46.40;;;;;;4995316;28;20022;-70
2021/05/08 16:24:23;;;;;;;1.63;0.68;;;10.50;46.30;;;;;;4995079;28;20032;-69
2021/05/08 16:26:49;;;;;;;0.30;0.30;;;10.50;46.80;;;;;;4987255;28;20030;-70
2021/05/08 16:29:15;;;;;;;0.90;0.77;;;10.40;46.00;;;;;;4992390;28;20030;-70
2021/05/08 16:31:41;;;;;;;0.80;0.57;;;10.60;54.60;;;;;;4998258;28;20610;-71
2021/05/08 16:34:06;;;;;;;4.50;1.40;;;11.20;53.90;;;;;;4995238;28;20026;-71
2021/05/08 16:36:32;;;;;;;1.40;0.80;;;11.20;48.00;;;;;;4995227;28;20441;-70
2021/05/08 16:38:59;;;;;;;1.38;1.27;;;10.90;48.00;;;;;;4995341;28;20030;-70
2021/05/08 16:41:24;;;;;;;2.10;0.70;;;10.70;47.90;;;;;;4994742;28;20029;-69
2021/05/08 16:43:50;;;;;;;1.23;0.52;;;10.50;47.60;;;;;;4994900;28;20030;-69
2021/05/08 16:46:18;;;;;;;0.98;0.50;;;10.40;47.80;;;;;;4995072;28;20377;-69
2021/05/08 16:48:44;;;;;;;0.40;0.40;;;10.40;47.60;;;;;;4992141;28;20034;-73